To NAV CANADA Home Page Login to a new session Search on AWWS site Disclaimer Vers la page française équivalente Tips FAQ What's new on the site To the Forecasts and Observations / NOTAM section To "File a Flight Plan" website Publications and other links Update of the User's profile FIC Telephone Numbers My Weather Data Folder Route Weather Data Regional Weather Data Local Weather Data To the Forecasts and Observations / NOTAM section
Request Generated 11/16/2018 at 02:08:24 UTC . Weather information available at that time is displayed.

METAR/TAF

WIARTON/ON    

METAR CYVV 160200Z 12005KT 3/4SM -SN VV006 M02/M03 A2992 RMK SN8 /S03/ SLP145=
METAR CYVV 160100Z 12005KT 3/4SM -SN VV007 M02/M03 A2996 RMK SN8 SLP157=
METAR CYVV 160000Z 12007KT 3/4SM -SN VV006 M02/M03 A2998 RMK SN8 /S02/ SLP167=

*** REMARK        : Forecast period has ended; this was the last TAF issued
*** REMARQUE : La période de prévision est échue; ceci était le dernier TAF qui a été émis
TAF AMD CYVV 152136Z 1521/1524 12010KT 1SM -SN VV007 TEMPO 1521/1524
3SM -SN OVC020
RMK NXT FCST WILL BE ISSUED AT 161145Z=
Your time UTC time
Weather data provided by Environment Canada and NAV CANADA